OIZJ  Jask Airport

Add Bookmark

Jask, Iran

Status
Operational
Latitude Longitude
25° 39' 12" N 57° 47' 57" E
25.653601 57.799301
Local (DST + 5) UTC (GMT + 4)
Sep 1, 2014 12:02 Sep 1, 2014 07:32
Sunrise-Sunset Local UTC
Begin Civil Twilight 05:54 01:24
Sunrise 06:18 01:48
Sunset 06:59 14:29
End Civil Twilight 07:22 14:52

Current Weather

METAR Observed MVFR
OIZJ 010700Z 16004KT 6000 SKC 33/28 Q0999 Mon, Sep 1, 2014 @ 07:00 UTC
(32 Minutes ago)
Marginal Visual Flight Rules
Wind Visibility Clouds Conditions
160° at 4 knots (7 kph) 6000 meters
  • Clear skies
  • No significant weather
Temperatures Readings Precipitation
Current Temp 33°C (91°F)
Dewpoint 28°C (82°F)
Heat Index 45°C (113°F)
Humidity 75%
Altimeter 29.5"Hg
Sea Level Pressure 999mb
Field Elevation 13.12'
None Recorded

Additional weather within a 185.2km radius of OIZJ

Map ICAO Location
OMFJ 159.8km W (248°)
OIKO 178.5km N (337°)

24 Hour Weather History

Loading
-

24 Hour Weather Graphs

Loading
-

CheckWX.com is intended as a tool to help pilots better visualize weather data. It is not intended as a substitute for an official weather briefing obtained from a Flight Service Station. CheckWX.com does not meet the FAA requirements for an official pre-flight weather briefing. Therefore, it's important that pilots still call and obtain an official FSS pre-flight weather briefing.